Flight Track Log - Related Links

Times and Time Zones

All times are in EDT time to prevent confusion due to time zone crossing. See the N502QS flight status page for this flight to view local times or setup timezone preferences in your user account.

Time Position Orientation Groundspeed Altitude Reporting Facility
EDT Latitude Longitude Course Direction KTS MPH feet Rate Location/Type
Sun 08:13:14 PM 34.1667 -118.4833 278° West 198 228 1,800  Level Southern California TRACON
Sun 08:15:29 PM 34.1817 -118.6214 278° West 269 310 9,300 3,442 Climbing Los Angeles Center
Sun 08:16:31 PM 34.2569 -118.6222 359° North 269 310 13,100 3,097 Climbing Los Angeles Center
Sun 08:17:33 PM 34.3347 -118.6328 354° North 281 323 15,700 1,403 Climbing Los Angeles Center
Sun 08:18:35 PM 34.4103 -118.6658 340° North 290 334 16,000 576 Climbing Los Angeles Center
Sun 08:19:38 PM 34.4894 -118.7050 338° Northwest 319 367 16,900 1,344 Climbing Los Angeles Center
Sun 08:20:40 PM 34.5861 -118.7522 338° Northwest 374 430 18,800 2,468 Climbing Los Angeles Center
Sun 08:21:42 PM 34.7053 -118.8128 337° Northwest 387 445 22,000 2,806 Climbing Los Angeles Center
Sun 08:22:44 PM 34.8064 -118.8647 337° Northwest 393 452 24,600 2,371 Climbing Los Angeles Center
Sun 08:23:46 PM 34.9042 -118.9447 326° Northwest 401 461 26,900 1,645 Climbing Los Angeles Center
Sun 08:24:48 PM 34.9986 -119.0222 326° Northwest 408 470 28,000 532 Climbing Los Angeles Center
Sun 08:25:50 PM 35.0936 -119.1039 325° Northwest 417 480 28,000  Level Los Angeles Center
Sun 08:26:52 PM 35.1658 -119.2153 308° West 430 495 28,000  Level Los Angeles Center
Sun 08:27:54 PM 35.2211 -119.3389 299° West 418 481 28,000  Level Los Angeles Center
Sun 08:28:56 PM 35.2906 -119.4869 300° West 419 482 28,000  Level Los Angeles Center
Sun 08:29:59 PM 35.3481 -119.6117 300° West 422 486 28,000  Level Los Angeles Center
Sun 08:31:01 PM 35.4056 -119.7358 300° West 421 484 28,000  Level Los Angeles Center
Sun 08:32:03 PM 35.4611 -119.8581 299° West 412 474 28,000  Level Los Angeles Center
Sun 08:33:05 PM 35.5186 -119.9822 300° West 420 483 28,000  Level Los Angeles Center
Sun 08:34:07 PM 35.5861 -120.1311 299° West 420 483 28,000  Level Los Angeles Center
Sun 08:35:09 PM 35.6358 -120.2397 299° West 421 484 28,000  Level Los Angeles Center
Sun 08:35:44 PM 35.6764 -120.3308 299° West 425 489 28,000  Level Oakland Center
Sun 08:36:45 PM 35.7369 -120.4531 301° West 425 489 28,000  Level Oakland Center
Sun 08:37:47 PM 35.8181 -120.5597 313° West 428 493 28,000  Level Oakland Center
Sun 08:38:48 PM 35.8983 -120.6658 313° West 427 491 28,000  Level Oakland Center
Sun 08:39:49 PM 35.9781 -120.7739 312° West 427 491 28,000  Level Oakland Center
Sun 08:40:51 PM 36.0764 -120.9031 313° West 430 495 28,000  Level Oakland Center
Sun 08:41:52 PM 36.1564 -121.0097 313° West 426 490 28,000 -829 Level Oakland Center
Sun 08:42:54 PM 36.2361 -121.1200 312° West 428 493 26,300 -1,854 Descending Oakland Center
Sun 08:43:55 PM 36.3133 -121.2233 313° West 413 475 24,200 -2,016 Descending Oakland Center
Sun 08:44:56 PM 36.3889 -121.3256 313° West 405 466 22,200 -2,049 Descending Oakland Center
Sun 08:45:58 PM 36.4656 -121.4247 314° West 399 459 20,000 -2,146 Descending Oakland Center
Sun 08:46:59 PM 36.5639 -121.4653 342° North 377 434 17,800 -2,066 Descending Oakland Center
Sun 08:48:00 PM 36.6625 -121.4881 350° North 361 415 15,800 -1,854 Descending Oakland Center
Sun 08:49:02 PM 36.7536 -121.5050 352° North 335 386 14,000 -1,707 Descending Oakland Center
Sun 08:50:03 PM 36.8397 -121.5250 349° North 285 328 12,300 -1,659 Descending Oakland Center
Sun 08:51:05 PM 36.9078 -121.5625 336° Northwest 272 313 10,600 -1,659 Descending Oakland Center
Sun 08:52:06 PM 36.9711 -121.6036 333° Northwest 261 300 8,900 -1,623 Descending Oakland Center
Sun 08:53:07 PM 37.0400 -121.6436 335° Northwest 269 310 7,300 -1,366 Descending Oakland Center
Sun 08:54:09 PM 37.1069 -121.6822 335° Northwest 266 306 6,100 -1,274 Descending Oakland Center
Sun 08:55:00 PM 37.1667 -121.7167 335° Northwest 252 290 4,900 -1,459 Descending Northern Cal TRACON
Sun 08:56:00 PM 37.2167 -121.7833 313° West 241 277 3,400 -1,250 Descending Northern Cal TRACON
Sun 08:57:00 PM 37.2667 -121.8333 321° Northwest 199 229 2,400 -900 Descending Northern Cal TRACON
Sun 08:58:00 PM 37.3000 -121.8667 322° Northwest 152 175 1,600 -800 Descending Northern Cal TRACON
Sun 08:59:00 PM 37.3333 -121.9000 322° Northwest 136 157 800 8,058 Descending Northern Cal TRACON
Sun 09:00:17 PM 37.3617 -121.9311 319° Northwest 139 160 20,000 14,961 Climbing Oakland Center
Sun 09:02:00 PM 37.3627 -121.9291 North  Level Estimated

Login

Don't have an account? Register now (free) for customized features, flight alerts, and more!